createdAt,value
2023-04-27T00:02:16.591Z,11.10
2023-04-27T00:04:45.115Z,11.00
2023-04-27T00:07:12.496Z,10.90
2023-04-27T00:09:39.489Z,10.80
2023-04-27T00:12:07.301Z,10.80
2023-04-27T00:14:34.304Z,10.80
2023-04-27T00:17:01.332Z,10.80
2023-04-27T00:19:28.648Z,10.90
2023-04-27T00:21:58.066Z,10.90
2023-04-27T00:24:25.201Z,10.90
2023-04-27T00:26:52.431Z,10.90
2023-04-27T00:29:19.565Z,10.80
2023-04-27T00:31:46.551Z,10.80
2023-04-27T00:34:13.696Z,10.80
2023-04-27T00:36:40.862Z,10.80
2023-04-27T00:39:09.357Z,10.70
2023-04-27T00:41:42.230Z,10.60
2023-04-27T00:44:09.347Z,10.50
2023-04-27T00:46:37.395Z,10.50
2023-04-27T00:49:04.494Z,10.50
2023-04-27T00:51:32.378Z,10.50
2023-04-27T00:54:00.068Z,10.50
2023-04-27T00:56:27.095Z,10.50
2023-04-27T00:58:54.229Z,10.40
2023-04-27T01:01:21.290Z,10.30
2023-04-27T01:03:49.066Z,10.30
2023-04-27T01:06:16.300Z,10.30
2023-04-27T01:08:43.415Z,10.30
2023-04-27T01:11:10.519Z,10.20
2023-04-27T01:13:37.536Z,10.10
2023-04-27T01:16:04.774Z,10.00
2023-04-27T01:18:32.048Z,9.90
2023-04-27T01:21:00.619Z,9.90
2023-04-27T01:23:27.749Z,9.90
2023-04-27T01:25:54.732Z,9.90
2023-04-27T01:28:21.795Z,9.80
2023-04-27T01:30:48.882Z,9.70
2023-04-27T01:33:16.245Z,9.70
2023-04-27T01:35:43.362Z,9.50
2023-04-27T01:38:10.532Z,9.40
2023-04-27T01:40:37.891Z,9.30
2023-04-27T01:43:05.122Z,9.30
2023-04-27T01:45:32.244Z,9.40
2023-04-27T01:47:59.244Z,9.40
2023-04-27T01:50:26.419Z,9.40
2023-04-27T01:52:53.458Z,9.50
2023-04-27T01:55:20.608Z,9.50
2023-04-27T01:57:47.643Z,9.50
2023-04-27T02:00:14.868Z,9.60
2023-04-27T02:02:42.266Z,9.60
2023-04-27T02:05:09.956Z,9.60
2023-04-27T02:07:36.986Z,9.60
2023-04-27T02:10:04.414Z,9.60
2023-04-27T02:12:34.893Z,9.50
2023-04-27T02:15:03.441Z,9.50
2023-04-27T02:17:31.442Z,9.40
2023-04-27T02:19:58.527Z,9.30
2023-04-27T02:22:25.609Z,9.30
2023-04-27T02:24:52.625Z,9.30
2023-04-27T02:27:19.629Z,9.30
2023-04-27T02:30:13.089Z,9.30
2023-04-27T02:32:41.628Z,9.30
2023-04-27T02:35:09.390Z,9.20
2023-04-27T02:37:37.004Z,9.00
2023-04-27T02:40:05.035Z,9.00
2023-04-27T02:42:32.106Z,8.80
2023-04-27T02:44:59.177Z,8.80
2023-04-27T02:47:26.884Z,8.80
2023-04-27T02:49:53.924Z,8.80
2023-04-27T02:52:20.908Z,8.70
2023-04-27T02:54:47.953Z,8.60
2023-04-27T02:57:15.077Z,8.40
2023-04-27T02:59:42.128Z,8.30
2023-04-27T03:02:09.593Z,8.30
2023-04-27T03:04:36.916Z,8.30
2023-04-27T03:07:04.708Z,8.20
2023-04-27T03:09:31.752Z,8.30
2023-04-27T03:11:59.003Z,8.50
2023-04-27T03:14:26.064Z,8.50
2023-04-27T03:16:54.494Z,8.50
2023-04-27T03:19:21.499Z,8.50
2023-04-27T03:21:48.522Z,8.40
2023-04-27T03:24:15.842Z,8.50
2023-04-27T03:26:42.842Z,8.50
2023-04-27T03:29:10.214Z,8.50
2023-04-27T03:31:37.620Z,8.40
2023-04-27T03:34:04.680Z,8.40
2023-04-27T03:36:32.380Z,8.30
2023-04-27T03:38:59.390Z,8.40
2023-04-27T03:41:26.478Z,8.40
2023-04-27T03:43:53.680Z,8.50
2023-04-27T03:46:20.866Z,8.50
2023-04-27T03:48:47.932Z,8.50
2023-04-27T03:51:15.295Z,8.60
2023-04-27T03:53:42.353Z,8.60
2023-04-27T03:56:09.570Z,8.50
2023-04-27T03:58:36.621Z,8.60
2023-04-27T04:01:03.672Z,8.50
2023-04-27T04:03:30.993Z,8.50
2023-04-27T04:05:58.269Z,8.50
2023-04-27T04:08:25.270Z,8.50
2023-04-27T04:10:52.288Z,8.40
2023-04-27T04:13:19.498Z,8.40
2023-04-27T04:15:46.640Z,8.40
2023-04-27T04:18:13.789Z,8.40
2023-04-27T04:20:41.049Z,8.50
2023-04-27T04:23:08.092Z,8.60
2023-04-27T04:25:35.426Z,8.60
2023-04-27T04:28:02.603Z,8.70
2023-04-27T04:30:29.679Z,8.70
2023-04-27T04:32:56.959Z,8.80
2023-04-27T04:35:23.947Z,8.80
2023-04-27T04:37:51.436Z,8.80
2023-04-27T04:40:19.318Z,8.90
2023-04-27T04:42:46.915Z,8.90
2023-04-27T04:45:14.211Z,9.00
2023-04-27T04:47:41.644Z,9.10
2023-04-27T04:50:13.307Z,9.10
2023-04-27T04:52:40.419Z,9.20
2023-04-27T04:55:07.639Z,9.20
2023-04-27T04:57:34.733Z,9.30
2023-04-27T05:00:02.100Z,9.40
2023-04-27T05:02:29.539Z,9.40
2023-04-27T05:04:57.641Z,9.50
2023-04-27T05:07:25.213Z,9.50
2023-04-27T05:09:52.599Z,9.60
2023-04-27T05:12:19.684Z,9.70
2023-04-27T05:14:46.810Z,9.80
2023-04-27T05:17:14.022Z,9.80
2023-04-27T05:19:41.144Z,9.80
2023-04-27T05:22:09.154Z,9.80
2023-04-27T05:24:36.246Z,9.80
2023-04-27T05:27:04.097Z,10.00
2023-04-27T05:29:31.249Z,10.00
2023-04-27T05:31:59.029Z,10.10
2023-04-27T05:34:26.121Z,10.20
2023-04-27T05:36:59.316Z,10.30
2023-04-27T05:39:30.803Z,10.50
2023-04-27T05:42:01.611Z,10.50
2023-04-27T05:44:29.603Z,10.60
2023-04-27T05:46:56.650Z,10.60
2023-04-27T05:49:23.904Z,10.70
2023-04-27T05:51:54.731Z,10.70
2023-04-27T05:54:22.245Z,10.70
2023-04-27T05:56:50.932Z,10.80
2023-04-27T05:59:18.078Z,10.80
2023-04-27T06:01:45.229Z,10.80
2023-04-27T06:04:12.608Z,10.80
2023-04-27T06:06:39.684Z,10.90
2023-04-27T06:09:06.789Z,11.10
2023-04-27T06:11:33.805Z,11.40
2023-04-27T06:14:00.870Z,11.50
2023-04-27T06:16:28.464Z,11.70
2023-04-27T06:18:55.668Z,11.90
2023-04-27T06:21:22.896Z,12.10
2023-04-27T06:23:50.032Z,12.30
2023-04-27T06:26:17.096Z,12.50
2023-04-27T06:28:51.892Z,12.60
2023-04-27T06:31:19.062Z,12.60
2023-04-27T06:33:46.335Z,12.80
2023-04-27T06:36:13.798Z,12.80
2023-04-27T06:38:44.030Z,12.90
2023-04-27T06:41:11.385Z,13.00
2023-04-27T06:43:38.744Z,13.10
2023-04-27T06:46:05.961Z,13.20
2023-04-27T06:48:33.114Z,13.40
2023-04-27T06:51:00.231Z,13.60
2023-04-27T06:53:27.244Z,13.90
2023-04-27T06:55:54.581Z,14.10
2023-04-27T06:58:22.653Z,14.30
2023-04-27T07:00:50.029Z,14.60
2023-04-27T07:03:17.392Z,14.70
2023-04-27T07:05:44.792Z,14.90
2023-04-27T07:08:12.542Z,15.10
2023-04-27T07:10:39.786Z,15.30
2023-04-27T07:13:09.217Z,15.50
2023-04-27T07:18:04.409Z,15.60
2023-04-27T07:20:32.130Z,15.60
2023-04-27T07:22:59.309Z,15.60
2023-04-27T07:25:26.870Z,15.50
2023-04-27T07:27:55.129Z,15.50
2023-04-27T07:30:23.558Z,15.50
2023-04-27T07:32:54.885Z,15.40
2023-04-27T07:35:22.528Z,15.30
2023-04-27T07:37:49.858Z,15.10
2023-04-27T07:40:17.273Z,15.00
2023-04-27T07:42:45.105Z,15.00
2023-04-27T07:45:12.573Z,15.10
2023-04-27T07:47:39.851Z,15.20
2023-04-27T07:50:07.819Z,15.40
2023-04-27T07:52:34.957Z,15.50
2023-04-27T07:55:02.211Z,15.70
2023-04-27T07:57:29.452Z,15.90
2023-04-27T07:59:57.293Z,16.20
2023-04-27T08:02:24.579Z,16.40
2023-04-27T08:04:51.995Z,16.50
2023-04-27T08:07:19.808Z,16.80
2023-04-27T08:09:47.006Z,16.80
2023-04-27T08:12:14.932Z,16.80
2023-04-27T08:14:42.237Z,16.70
2023-04-27T08:17:11.709Z,16.70
2023-04-27T08:19:39.248Z,16.60
2023-04-27T08:22:06.474Z,16.70
2023-04-27T08:24:36.647Z,16.60
2023-04-27T08:28:04.119Z,16.70
2023-04-27T08:30:31.348Z,17.20
2023-04-27T08:32:58.504Z,17.50
2023-04-27T08:35:25.611Z,17.50
2023-04-27T08:37:54.609Z,17.60
2023-04-27T08:41:20.410Z,17.70
2023-04-27T08:43:59.708Z,18.00
2023-04-27T08:47:02.995Z,18.20
2023-04-27T09:00:39.743Z,18.30
2023-04-27T09:03:07.183Z,18.30
2023-04-27T09:05:34.956Z,18.30
2023-04-27T09:08:05.786Z,18.40
2023-04-27T09:10:45.166Z,18.50
2023-04-27T09:13:12.439Z,18.80
2023-04-27T09:15:50.633Z,18.90
2023-04-27T09:18:23.393Z,19.10
2023-04-27T09:20:52.099Z,19.10
2023-04-27T09:23:46.890Z,19.10
2023-04-27T09:26:23.548Z,19.50
2023-04-27T09:28:58.587Z,19.80
2023-04-27T09:31:36.379Z,19.80
2023-04-27T09:34:06.131Z,20.10
2023-04-27T09:36:33.542Z,20.00
2023-04-27T09:39:05.103Z,19.70
2023-04-27T09:41:33.720Z,19.60
2023-04-27T09:44:01.996Z,19.40
2023-04-27T09:46:30.231Z,19.40
2023-04-27T09:48:57.703Z,19.50
2023-04-27T09:51:24.851Z,19.70
2023-04-27T09:53:57.901Z,19.90
2023-04-27T09:56:47.908Z,20.00
2023-04-27T09:59:55.951Z,20.00
2023-04-27T10:02:25.688Z,20.30
2023-04-27T10:05:09.407Z,20.70
2023-04-27T10:07:38.905Z,20.90
2023-04-27T10:10:07.573Z,21.10
2023-04-27T10:13:20.631Z,21.10
2023-04-27T10:15:47.842Z,21.20
2023-04-27T10:18:35.518Z,21.40
2023-04-27T10:21:14.313Z,21.60
2023-04-27T10:23:51.470Z,21.90
2023-04-27T10:26:28.484Z,22.00
2023-04-27T10:29:07.894Z,22.10
2023-04-27T10:31:35.240Z,22.20
2023-04-27T10:34:09.035Z,22.30
2023-04-27T10:36:39.670Z,22.50
2023-04-27T10:39:19.916Z,22.30
2023-04-27T10:41:53.826Z,22.10
2023-04-27T10:44:30.293Z,22.00
2023-04-27T10:47:01.655Z,22.00
2023-04-27T10:49:29.672Z,21.90
2023-04-27T10:51:58.894Z,21.90
2023-04-27T10:54:30.132Z,22.00
2023-04-27T10:57:17.397Z,22.10
2023-04-27T10:59:52.250Z,22.10
2023-04-27T11:02:26.845Z,22.20
2023-04-27T11:04:54.272Z,22.20
2023-04-27T11:07:28.517Z,22.10
2023-04-27T11:09:56.081Z,21.70
2023-04-27T11:12:24.290Z,21.70
2023-04-27T11:14:59.382Z,21.70
2023-04-27T11:17:46.025Z,22.00
2023-04-27T11:20:13.646Z,22.50
2023-04-27T11:22:48.453Z,22.70
2023-04-27T11:25:16.999Z,22.60
2023-04-27T11:27:45.742Z,22.50
2023-04-27T11:30:22.972Z,22.40
2023-04-27T11:32:50.301Z,22.60
2023-04-27T11:35:18.745Z,22.70
2023-04-27T11:37:56.352Z,22.90
2023-04-27T11:40:24.654Z,22.90
2023-04-27T11:42:58.751Z,23.10
2023-04-27T11:45:28.315Z,22.90
2023-04-27T11:47:55.702Z,22.90
2023-04-27T11:50:27.213Z,22.90
2023-04-27T11:52:54.603Z,22.70
2023-04-27T11:55:22.346Z,22.60
2023-04-27T11:57:49.411Z,22.60
2023-04-27T12:00:25.552Z,22.50
2023-04-27T12:02:52.973Z,22.70
2023-04-27T12:10:45.729Z,23.10
2023-04-27T12:13:14.378Z,22.90
2023-04-27T12:15:42.797Z,22.80
2023-04-27T12:18:11.249Z,22.90
2023-04-27T12:20:39.613Z,22.90
2023-04-27T12:23:06.730Z,22.70
2023-04-27T12:25:33.864Z,22.60
2023-04-27T12:28:20.884Z,22.70
2023-04-27T12:50:11.252Z,23.50
2023-04-27T12:52:38.849Z,23.40
2023-04-27T12:55:28.937Z,23.30
2023-04-27T12:57:59.354Z,23.30
2023-04-27T13:00:32.351Z,23.30
2023-04-27T13:03:02.768Z,23.40
2023-04-27T13:05:32.265Z,23.40
2023-04-27T13:07:59.636Z,23.50
2023-04-27T13:10:26.891Z,23.60
2023-04-27T13:12:54.744Z,23.60
2023-04-27T13:15:21.912Z,23.70
2023-04-27T13:17:49.248Z,23.40
2023-04-27T13:20:16.491Z,23.40
2023-04-27T13:22:43.833Z,23.50
2023-04-27T13:25:11.178Z,23.40
2023-04-27T13:27:38.621Z,23.50
2023-04-27T13:30:07.116Z,23.60
2023-04-27T13:32:34.523Z,23.60
2023-04-27T13:35:01.625Z,23.60
2023-04-27T13:37:28.857Z,23.60
2023-04-27T13:39:56.143Z,23.50
2023-04-27T13:42:29.511Z,23.30
2023-04-27T13:44:57.491Z,23.30
2023-04-27T13:47:24.779Z,23.30
2023-04-27T13:49:52.109Z,23.10
2023-04-27T13:52:19.470Z,23.00
2023-04-27T13:54:46.633Z,22.90
2023-04-27T14:03:19.921Z,22.30
2023-04-27T14:24:49.866Z,21.70
2023-04-27T14:27:20.789Z,21.70
2023-04-27T14:29:48.420Z,21.80
2023-04-27T14:32:20.076Z,21.80
2023-04-27T14:34:48.242Z,21.80
2023-04-27T14:37:15.765Z,21.70
2023-04-27T14:39:49.438Z,21.60
2023-04-27T14:46:04.776Z,21.30
2023-04-27T14:51:32.738Z,21.20
2023-04-27T14:54:06.424Z,21.20
2023-04-27T16:31:41.373Z,19.20
2023-04-27T16:34:18.822Z,19.10
2023-04-27T16:39:42.075Z,18.90
2023-04-27T16:42:14.386Z,18.80
2023-04-27T16:44:42.465Z,18.90
2023-04-27T16:47:09.887Z,18.80
2023-04-27T16:49:38.105Z,18.80
2023-04-27T16:52:06.259Z,18.80
2023-04-27T16:57:32.144Z,18.70
2023-04-27T17:00:03.259Z,18.70
2023-04-27T17:02:30.951Z,18.50
2023-04-27T17:05:00.887Z,18.50
2023-04-27T17:07:33.230Z,18.40
2023-04-27T17:10:02.912Z,18.40
2023-04-27T17:12:30.114Z,18.30
2023-04-27T17:18:05.554Z,18.10
2023-04-27T17:20:34.723Z,18.00
2023-04-27T17:23:05.155Z,18.00
2023-04-27T17:25:35.004Z,17.90
2023-04-27T17:28:03.166Z,17.90
2023-04-27T17:30:30.622Z,17.80
2023-04-27T17:32:58.137Z,17.80
2023-04-27T17:35:26.309Z,17.80
2023-04-27T17:37:54.239Z,17.80
2023-04-27T18:16:55.190Z,16.90
2023-04-27T18:19:44.397Z,16.90
2023-04-27T18:22:23.248Z,16.80
2023-04-27T18:36:13.243Z,16.20
2023-04-27T18:38:40.869Z,15.90
2023-04-27T18:41:17.061Z,15.90
2023-04-27T18:43:44.590Z,15.90
2023-04-27T18:46:12.147Z,15.90
2023-04-27T18:48:39.464Z,16.00
2023-04-27T18:51:08.542Z,16.00
2023-04-27T18:53:35.982Z,16.00
2023-04-27T18:56:03.655Z,16.00
2023-04-27T18:58:32.134Z,16.00
2023-04-27T19:01:00.067Z,15.90
2023-04-27T19:03:27.929Z,15.90
2023-04-27T19:05:59.792Z,15.80
2023-04-27T19:08:28.453Z,15.70
2023-04-27T19:10:55.776Z,15.60
2023-04-27T19:13:28.770Z,15.60
2023-04-27T19:15:57.095Z,15.50
2023-04-27T19:18:24.368Z,15.50
2023-04-27T19:20:52.301Z,15.40
2023-04-27T19:23:20.187Z,15.30
2023-04-27T19:25:48.697Z,15.20
2023-04-27T19:28:19.649Z,15.10
2023-04-27T19:30:49.529Z,15.10
2023-04-27T19:33:19.731Z,15.00
2023-04-27T19:35:47.872Z,15.00
2023-04-27T19:38:18.494Z,14.90
2023-04-27T19:40:47.446Z,14.80
2023-04-27T19:43:15.541Z,14.80
2023-04-27T19:45:44.124Z,14.70
2023-04-27T19:48:11.580Z,14.60
2023-04-27T19:50:42.195Z,14.50
2023-04-27T19:53:10.007Z,14.40
2023-04-27T19:55:38.052Z,14.20
2023-04-27T19:58:06.262Z,14.10
2023-04-27T20:00:33.957Z,14.00
2023-04-27T20:03:01.630Z,14.00
2023-04-27T20:05:29.751Z,13.90
2023-04-27T20:07:57.642Z,13.90
2023-04-27T20:10:25.502Z,13.90
2023-04-27T20:12:56.853Z,13.70
2023-04-27T20:15:25.249Z,13.60
2023-04-27T20:17:54.582Z,13.50
2023-04-27T20:20:21.975Z,13.40
2023-04-27T20:22:49.788Z,13.30
2023-04-27T20:25:20.006Z,13.30
2023-04-27T20:27:50.911Z,13.30
2023-04-27T20:30:18.325Z,13.30
2023-04-27T20:32:46.971Z,13.40
2023-04-27T20:35:14.703Z,13.40
2023-04-27T20:37:43.955Z,13.50
2023-04-27T20:40:14.710Z,13.50
2023-04-27T20:43:16.461Z,13.40
2023-04-27T20:45:43.922Z,13.30
2023-04-27T20:54:39.341Z,13.10
2023-04-27T20:57:38.929Z,13.10
2023-04-27T21:03:06.955Z,13.20
2023-04-27T21:25:26.532Z,12.80
2023-04-27T21:33:35.019Z,12.70
2023-04-27T21:45:25.277Z,12.60
2023-04-27T21:54:14.371Z,12.50
2023-04-27T23:11:43.061Z,11.30
2023-04-27T23:34:04.953Z,11.20
2023-04-27T23:49:35.192Z,10.70
2023-04-27T23:52:02.369Z,10.70
2023-04-27T23:54:32.708Z,10.70
2023-04-27T23:56:59.827Z,10.70
2023-04-27T23:59:26.964Z,10.70
